Tlaxcala, Mexico

11:54 AM CDT on August 27, 2016 (GMT -0500)
PROTECCION CIVIL MUN PUE01 | | Change Station

Elev 7123 ft 19.06 °N, 98.22 °W | Updated 26 seconds ago

Scattered Clouds
Scattered Clouds
70.2 °F
Feels Like 77 °F
N
0.4
Wind Variable Wind from ENE
Gusts 2.5 mph

Today
High -- | Low -- °F
--% Chance of Precip.
Yesterday
High -- | Low -- °F
Precip. -- in
Pressure 30.35 in
Visibility 4.0 miles
Clouds Scattered Clouds 2000 ft
Heat Index 77 °F
Dew Point 50 °F
Humidity 48%
Rainfall 0.00 in
Snow Depth Not available.
7:16 AM 7:51 PM
Waning Crescent, 23% visible
SPECI MMMX 271626Z 06004KT 4SM SCT020 20/11 A3035 NOSIG RMK 8/100 HZY
Pressure 30.35 in
Visibility 4.0 miles
Clouds Scattered Clouds 2000 ft
Heat Index 77 °F
Dew Point 50 °F
Humidity 48%
Rainfall 0.00 in
Snow Depth Not available.
7:16 AM 7:51 PM
Waning Crescent, 23% visible
SPECI MMMX 271626Z 06004KT 4SM SCT020 20/11 A3035 NOSIG RMK 8/100 HZY

10-Day Weather Forecast

No radar image for this location.
×

Almanac

Astronomy

Aug. 27, 2016 Rise Set
Actual Time
Civil Twilight
Nautical Twilight
Astronomical Twilight
Moon
Length of Visible Light
Length of Day
Tomorrow will be .
, % of the Moon is Illuminated

Today's Extremes

Country Highs Country Lows

Community

WunderPhotos

Upload Photos

1,935,377 photos uploaded!

WunderBlog® & News

Nearby

Air Quality

  Air Quality AQ Index Pollutant
Not available.

Snow Depth

Station Depth Elevation

Earthquake Activity

City Distance Mag. Time & Date
Minimum magnitude displayed is 2.5.

Coastal Water Temperatures

Place Temperature

Stations

Nearby Weather Stations

Station Location Temp. Windchill Dew Point Humidity Wind Precip. Elev Updated Type